createdAt,value
2019-02-19T00:01:35.382Z,71.50
2019-02-19T00:04:05.736Z,53.87
2019-02-19T00:06:36.248Z,65.10
2019-02-19T00:09:08.259Z,58.03
2019-02-19T00:11:38.959Z,77.20
2019-02-19T00:14:09.432Z,71.93
2019-02-19T00:16:39.893Z,86.67
2019-02-19T00:19:10.590Z,88.93
2019-02-19T00:21:44.290Z,82.27
2019-02-19T00:24:14.644Z,76.13
2019-02-19T00:26:45.496Z,69.63
2019-02-19T00:29:15.848Z,49.90
2019-02-19T00:31:46.426Z,54.40
2019-02-19T00:34:16.852Z,69.93
2019-02-19T00:36:47.411Z,87.57
2019-02-19T00:39:17.884Z,82.53
2019-02-19T00:41:48.366Z,47.57
2019-02-19T00:44:18.792Z,68.73
2019-02-19T00:46:49.408Z,80.80
2019-02-19T00:49:19.838Z,72.60
2019-02-19T00:51:50.259Z,86.03
2019-02-19T00:54:20.658Z,50.90
2019-02-19T00:56:51.306Z,62.97
2019-02-19T00:59:21.792Z,64.47
2019-02-19T01:01:52.602Z,86.40
2019-02-19T01:04:26.130Z,52.27
2019-02-19T01:06:56.600Z,70.70
2019-02-19T01:09:27.036Z,84.20
2019-02-19T01:11:57.742Z,67.47
2019-02-19T01:14:28.190Z,62.23
2019-02-19T01:16:58.956Z,85.63
2019-02-19T01:19:29.475Z,83.10
2019-02-19T01:21:59.972Z,56.10
2019-02-19T01:24:30.540Z,71.97
2019-02-19T01:27:01.078Z,43.77
2019-02-19T01:29:31.473Z,65.17
2019-02-19T01:32:01.864Z,63.93
2019-02-19T01:34:32.300Z,74.20
2019-02-19T01:37:02.786Z,45.57
2019-02-19T01:39:33.288Z,55.37
2019-02-19T01:42:04.053Z,69.53
2019-02-19T01:44:34.514Z,53.10
2019-02-19T01:47:05.809Z,64.50
2019-02-19T01:49:36.300Z,73.93
2019-02-19T01:52:06.728Z,63.23
2019-02-19T01:54:37.417Z,76.57
2019-02-19T01:57:07.862Z,79.43
2019-02-19T01:59:38.302Z,91.97
2019-02-19T02:02:08.727Z,92.83
2019-02-19T02:04:39.147Z,86.33
2019-02-19T02:07:09.502Z,84.77
2019-02-19T02:09:40.352Z,90.03
2019-02-19T02:12:10.758Z,94.03
2019-02-19T02:14:41.245Z,90.40
2019-02-19T02:17:11.724Z,75.47
2019-02-19T02:19:42.139Z,80.67
2019-02-19T02:22:12.564Z,87.73
2019-02-19T02:24:42.908Z,91.93
2019-02-19T02:27:13.714Z,90.53
2019-02-19T02:29:44.268Z,83.63
2019-02-19T02:32:14.948Z,100.47
2019-02-19T02:34:45.497Z,89.37
2019-02-19T02:37:15.910Z,93.33
2019-02-19T02:39:46.743Z,92.40
2019-02-19T02:42:17.118Z,100.43
2019-02-19T02:44:47.529Z,99.57
2019-02-19T02:47:18.203Z,97.53
2019-02-19T02:49:48.664Z,89.83
2019-02-19T02:52:19.054Z,90.93
2019-02-19T02:54:49.467Z,83.73
2019-02-19T02:57:19.966Z,101.57
2019-02-19T02:59:50.431Z,81.53
2019-02-19T03:02:22.158Z,86.57
2019-02-19T03:04:52.617Z,99.77
2019-02-19T03:07:31.485Z,98.93
2019-02-19T03:10:02.440Z,96.43
2019-02-19T03:12:32.959Z,92.67
2019-02-19T03:15:03.783Z,71.13
2019-02-19T03:17:34.283Z,108.30
2019-02-19T03:20:05.734Z,91.70
2019-02-19T03:22:36.437Z,78.47
2019-02-19T03:25:07.302Z,103.17
2019-02-19T03:27:37.668Z,94.93
2019-02-19T03:30:10.524Z,84.03
2019-02-19T03:32:40.893Z,75.77
2019-02-19T03:35:11.356Z,85.63
2019-02-19T03:37:41.825Z,89.23
2019-02-19T03:40:12.645Z,106.77
2019-02-19T03:42:43.219Z,101.03
2019-02-19T03:45:13.704Z,107.07
2019-02-19T03:47:44.437Z,87.40
2019-02-19T03:50:14.862Z,87.17
2019-02-19T03:52:45.306Z,88.43
2019-02-19T03:55:16.069Z,99.30
2019-02-19T03:57:46.544Z,82.47
2019-02-19T04:00:16.990Z,97.53
2019-02-19T04:02:48.381Z,102.10
2019-02-19T04:05:19.255Z,82.40
2019-02-19T04:07:49.625Z,104.07
2019-02-19T04:10:20.344Z,104.67
2019-02-19T04:12:50.878Z,101.07
2019-02-19T04:15:21.848Z,98.57
2019-02-19T04:17:52.510Z,105.93
2019-02-19T04:20:22.971Z,84.53
2019-02-19T04:22:53.514Z,99.97
2019-02-19T04:25:23.859Z,98.70
2019-02-19T04:27:55.205Z,95.57
2019-02-19T04:30:25.599Z,85.50
2019-02-19T04:32:56.032Z,85.37
2019-02-19T04:35:26.423Z,103.40
2019-02-19T04:37:56.979Z,98.80
2019-02-19T04:40:27.322Z,93.77
2019-02-19T04:42:57.720Z,103.70
2019-02-19T04:45:28.151Z,102.23
2019-02-19T04:47:58.570Z,106.67
2019-02-19T04:50:29.197Z,92.97
2019-02-19T04:52:59.771Z,107.03
2019-02-19T04:55:30.299Z,93.97
2019-02-19T04:58:00.851Z,91.33
2019-02-19T05:00:31.322Z,87.83
2019-02-19T05:03:01.717Z,91.43
2019-02-19T05:05:32.178Z,110.17
2019-02-19T05:08:02.955Z,105.63
2019-02-19T05:10:33.429Z,104.70
2019-02-19T05:13:04.272Z,90.50
2019-02-19T05:15:34.632Z,81.20
2019-02-19T05:18:06.115Z,99.27
2019-02-19T05:20:36.641Z,105.20
2019-02-19T05:23:07.560Z,72.80
2019-02-19T05:25:38.190Z,73.10
2019-02-19T05:28:08.869Z,85.83
2019-02-19T05:30:39.285Z,87.00
2019-02-19T05:33:12.974Z,81.03
2019-02-19T05:35:45.028Z,82.03
2019-02-19T05:38:15.714Z,85.23
2019-02-19T05:40:46.419Z,106.87
2019-02-19T05:43:18.011Z,85.37
2019-02-19T05:45:48.407Z,83.13
2019-02-19T05:48:19.131Z,105.77
2019-02-19T05:50:49.623Z,100.07
2019-02-19T05:53:20.285Z,94.47
2019-02-19T05:55:50.745Z,83.57
2019-02-19T05:58:21.579Z,103.67
2019-02-19T06:00:52.097Z,92.10
2019-02-19T06:03:22.629Z,93.60
2019-02-19T06:05:53.056Z,80.80
2019-02-19T06:08:23.534Z,89.53
2019-02-19T06:10:53.960Z,67.37
2019-02-19T06:13:24.422Z,86.50
2019-02-19T06:15:55.239Z,85.20
2019-02-19T06:18:25.847Z,71.07
2019-02-19T06:20:56.533Z,85.03
2019-02-19T06:23:26.979Z,85.83
2019-02-19T06:25:57.737Z,90.30
2019-02-19T06:28:28.195Z,85.73
2019-02-19T06:30:58.724Z,88.90
2019-02-19T06:33:29.070Z,87.93
2019-02-19T06:36:01.099Z,81.77
2019-02-19T06:38:32.816Z,69.43
2019-02-19T06:41:03.541Z,77.43
2019-02-19T06:43:33.874Z,74.53
2019-02-19T06:46:04.301Z,64.97
2019-02-19T06:48:35.232Z,74.53
2019-02-19T06:51:05.635Z,77.97
2019-02-19T06:53:36.138Z,69.40
2019-02-19T06:56:06.823Z,64.50
2019-02-19T06:58:37.383Z,73.47
2019-02-19T07:01:07.844Z,72.30
2019-02-19T07:03:55.282Z,77.63
2019-02-19T07:06:26.107Z,66.83
2019-02-19T07:08:56.553Z,64.93
2019-02-19T07:11:26.933Z,64.47
2019-02-19T07:13:59.095Z,64.23
2019-02-19T07:16:29.803Z,60.37
2019-02-19T07:19:00.545Z,60.47
2019-02-19T07:21:31.327Z,55.33
2019-02-19T07:24:04.426Z,58.13
2019-02-19T07:26:34.299Z,58.87
2019-02-19T07:29:05.037Z,55.97
2019-02-19T07:31:35.485Z,55.37
2019-02-19T07:34:05.872Z,55.80
2019-02-19T07:36:36.309Z,52.13
2019-02-19T07:39:07.261Z,54.90
2019-02-19T07:41:37.717Z,54.37
2019-02-19T07:44:08.354Z,51.63
2019-02-19T07:46:39.104Z,54.40
2019-02-19T07:49:09.506Z,52.03
2019-02-19T07:51:39.981Z,55.00
2019-02-19T07:54:10.530Z,52.27
2019-02-19T07:56:41.751Z,49.30
2019-02-19T07:59:12.751Z,51.90
2019-02-19T08:01:43.264Z,51.47
2019-02-19T08:04:13.643Z,51.73
2019-02-19T08:06:44.737Z,48.93
2019-02-19T08:09:15.421Z,47.93
2019-02-19T08:11:46.020Z,46.83
2019-02-19T08:14:19.137Z,44.93
2019-02-19T08:16:49.926Z,45.30
2019-02-19T08:19:21.123Z,52.17
2019-02-19T08:21:52.151Z,49.70
2019-02-19T08:24:22.547Z,47.40
2019-02-19T08:26:54.775Z,45.30
2019-02-19T08:29:25.247Z,45.87
2019-02-19T08:31:56.004Z,44.10
2019-02-19T08:34:26.479Z,44.40
2019-02-19T08:36:56.973Z,40.77
2019-02-19T08:39:27.647Z,39.33
2019-02-19T08:41:58.107Z,38.57
2019-02-19T08:44:28.606Z,37.57
2019-02-19T08:46:59.009Z,41.97
2019-02-19T08:49:29.454Z,38.77
2019-02-19T08:52:00.303Z,34.90
2019-02-19T08:54:30.671Z,34.80
2019-02-19T08:57:01.129Z,31.37
2019-02-19T08:59:34.294Z,33.50
2019-02-19T09:02:05.049Z,34.03
2019-02-19T09:04:35.695Z,33.43
2019-02-19T09:07:06.520Z,35.40
2019-02-19T09:09:37.031Z,33.13
2019-02-19T09:12:07.558Z,30.73
2019-02-19T09:14:37.956Z,33.10
2019-02-19T09:17:08.389Z,33.60
2019-02-19T09:19:38.897Z,31.40
2019-02-19T09:22:09.655Z,32.23
2019-02-19T09:24:40.005Z,31.63
2019-02-19T09:27:10.415Z,30.60
2019-02-19T09:29:40.820Z,29.20
2019-02-19T09:32:11.271Z,29.77
2019-02-19T09:34:41.821Z,28.87
2019-02-19T09:37:12.219Z,31.07
2019-02-19T09:39:42.603Z,30.63
2019-02-19T09:42:13.048Z,28.00
2019-02-19T09:44:43.465Z,29.10
2019-02-19T09:47:14.031Z,29.37
2019-02-19T09:49:44.385Z,25.75
2019-02-19T09:52:14.857Z,27.80
2019-02-19T09:54:45.304Z,26.15
2019-02-19T09:57:15.908Z,27.60
2019-02-19T09:59:46.320Z,26.77
2019-02-19T10:02:16.828Z,30.30
2019-02-19T10:04:47.644Z,30.43
2019-02-19T10:07:19.346Z,26.45
2019-02-19T10:09:50.193Z,27.70
2019-02-19T10:12:20.724Z,26.50
2019-02-19T10:14:51.056Z,27.32
2019-02-19T10:17:21.547Z,26.10
2019-02-19T10:19:52.310Z,27.70
2019-02-19T10:22:22.773Z,25.60
2019-02-19T10:24:53.184Z,25.82
2019-02-19T10:27:23.544Z,23.67
2019-02-19T10:29:54.015Z,28.80
2019-02-19T10:32:24.565Z,27.15
2019-02-19T10:34:55.378Z,25.52
2019-02-19T10:37:25.937Z,25.62
2019-02-19T10:39:56.368Z,25.90
2019-02-19T10:42:26.775Z,25.40
2019-02-19T10:44:59.007Z,28.12
2019-02-19T10:47:29.366Z,26.05
2019-02-19T10:49:59.771Z,23.35
2019-02-19T10:52:30.138Z,27.05
2019-02-19T10:55:00.619Z,26.15
2019-02-19T10:57:31.342Z,23.20
2019-02-19T11:00:02.224Z,23.20
2019-02-19T11:02:34.082Z,26.12
2019-02-19T11:05:05.072Z,24.32
2019-02-19T11:07:35.464Z,24.30
2019-02-19T11:10:07.245Z,24.27
2019-02-19T11:12:37.657Z,24.65
2019-02-19T11:15:08.990Z,24.85
2019-02-19T11:17:39.386Z,27.55
2019-02-19T11:20:11.288Z,26.60
2019-02-19T11:22:41.694Z,24.52
2019-02-19T11:25:12.896Z,24.30
2019-02-19T11:27:43.300Z,24.30
2019-02-19T11:30:15.353Z,23.30
2019-02-19T11:32:45.774Z,24.35
2019-02-19T11:35:16.294Z,24.87
2019-02-19T11:37:48.465Z,23.55
2019-02-19T11:40:18.870Z,22.45
2019-02-19T11:42:49.265Z,21.42
2019-02-19T11:45:20.103Z,25.08
2019-02-19T11:47:50.528Z,25.35
2019-02-19T11:50:20.924Z,22.67
2019-02-19T11:52:51.423Z,20.72
2019-02-19T11:55:22.217Z,23.40
2019-02-19T11:57:52.689Z,21.90
2019-02-19T12:00:28.375Z,22.25
2019-02-19T12:02:59.075Z,20.90
2019-02-19T12:05:29.575Z,21.23
2019-02-19T12:08:00.396Z,24.43
2019-02-19T12:10:31.026Z,21.35
2019-02-19T12:13:03.296Z,22.40
2019-02-19T12:15:35.422Z,21.37
2019-02-19T12:18:05.835Z,21.17
2019-02-19T12:20:36.773Z,20.80
2019-02-19T12:23:07.372Z,20.00
2019-02-19T12:25:37.925Z,20.88
2019-02-19T12:28:08.376Z,20.72
2019-02-19T12:30:38.814Z,21.52
2019-02-19T12:33:09.321Z,20.57
2019-02-19T12:35:39.737Z,20.85
2019-02-19T12:38:10.375Z,20.12
2019-02-19T12:40:40.746Z,20.35
2019-02-19T12:43:11.349Z,19.95
2019-02-19T12:45:42.067Z,19.75
2019-02-19T12:49:10.245Z,18.48
2019-02-19T12:51:41.130Z,22.17
2019-02-19T12:54:11.512Z,20.25
2019-02-19T12:56:41.937Z,21.50
2019-02-19T12:59:12.595Z,20.90
2019-02-19T13:01:43.020Z,22.07
2019-02-19T13:04:13.472Z,23.40
2019-02-19T13:06:44.054Z,20.82
2019-02-19T13:09:14.809Z,22.00
2019-02-19T13:11:45.458Z,22.27
2019-02-19T13:14:16.033Z,22.15
2019-02-19T13:16:47.126Z,21.17
2019-02-19T13:19:17.510Z,18.20
2019-02-19T13:21:48.111Z,20.25
2019-02-19T13:24:18.501Z,20.55
2019-02-19T13:26:48.903Z,20.92
2019-02-19T13:29:19.297Z,19.87
2019-02-19T13:31:51.232Z,19.57
2019-02-19T13:34:21.622Z,18.80
2019-02-19T13:36:51.981Z,19.40
2019-02-19T13:39:22.611Z,18.20
2019-02-19T13:41:52.989Z,18.33
2019-02-19T13:44:23.356Z,18.07
2019-02-19T13:46:53.922Z,17.53
2019-02-19T13:49:24.492Z,20.70
2019-02-19T13:51:57.808Z,16.57
2019-02-19T13:54:42.432Z,17.07
2019-02-19T13:57:12.881Z,16.90
2019-02-19T13:59:43.453Z,16.80
2019-02-19T14:02:13.884Z,17.67
2019-02-19T14:04:45.584Z,18.17
2019-02-19T14:07:16.112Z,18.43
2019-02-19T14:09:46.890Z,20.40
2019-02-19T14:12:17.337Z,19.57
2019-02-19T14:14:55.841Z,20.17
2019-02-19T14:17:26.547Z,20.37
2019-02-19T14:20:04.691Z,18.30
2019-02-19T14:22:55.741Z,18.73
2019-02-19T14:26:00.213Z,19.53
2019-02-19T14:28:52.902Z,17.97
2019-02-19T14:31:31.090Z,18.53
2019-02-19T14:34:22.654Z,20.10
2019-02-19T14:37:12.793Z,18.53
2019-02-19T14:39:55.413Z,20.33
2019-02-19T14:42:50.975Z,20.30
2019-02-19T14:45:33.727Z,18.33
2019-02-19T14:48:18.200Z,19.13
2019-02-19T14:51:13.777Z,20.30
2019-02-19T14:53:54.224Z,17.47
2019-02-19T14:56:59.099Z,21.70
2019-02-19T14:59:39.310Z,21.13
2019-02-19T15:02:46.696Z,20.63
2019-02-19T15:05:36.191Z,20.27
2019-02-19T15:08:24.206Z,20.70
2019-02-19T15:11:17.610Z,22.27
2019-02-19T15:14:05.935Z,21.63
2019-02-19T15:16:58.226Z,21.33
2019-02-19T15:19:40.462Z,20.10
2019-02-19T15:22:35.782Z,20.97
2019-02-19T15:25:24.370Z,23.40
2019-02-19T15:28:07.754Z,22.43
2019-02-19T15:30:57.006Z,22.40
2019-02-19T15:33:49.710Z,22.90
2019-02-19T15:36:38.566Z,21.30
2019-02-19T15:42:12.166Z,23.87
2019-02-19T15:45:04.038Z,23.67
2019-02-19T15:48:09.028Z,25.57
2019-02-19T15:51:16.650Z,24.90
2019-02-19T15:54:03.405Z,24.53
2019-02-19T15:56:51.445Z,25.10
2019-02-19T15:59:32.362Z,24.47
2019-02-19T16:02:21.848Z,27.97
2019-02-19T16:04:59.524Z,28.23
2019-02-19T16:07:39.264Z,25.07
2019-02-19T16:10:26.784Z,25.17
2019-02-19T16:13:02.263Z,26.20
2019-02-19T16:15:45.574Z,28.90
2019-02-19T16:18:41.183Z,29.30
2019-02-19T16:21:32.931Z,27.87
2019-02-19T16:24:16.915Z,27.57
2019-02-19T16:26:55.976Z,26.67
2019-02-19T16:29:41.973Z,27.13
2019-02-19T16:32:31.280Z,31.23
2019-02-19T16:35:23.711Z,28.53
2019-02-19T16:38:09.217Z,34.60
2019-02-19T16:40:58.822Z,27.93
2019-02-19T16:44:03.602Z,28.83
2019-02-19T16:46:43.178Z,31.93
2019-02-19T16:49:29.532Z,30.30
2019-02-19T16:52:06.045Z,32.90
2019-02-19T16:54:51.260Z,29.13
2019-02-19T16:57:46.986Z,30.90
2019-02-19T17:00:28.360Z,28.63
2019-02-19T17:03:09.363Z,31.23
2019-02-19T17:05:58.003Z,32.40
2019-02-19T17:08:52.953Z,31.23
2019-02-19T17:11:33.464Z,32.43
2019-02-19T17:14:21.490Z,32.07
2019-02-19T17:17:10.880Z,34.10
2019-02-19T17:20:21.067Z,33.27
2019-02-19T17:23:00.433Z,36.63
2019-02-19T17:25:48.476Z,33.30
2019-02-19T17:28:33.444Z,34.20
2019-02-19T17:31:29.355Z,36.33
2019-02-19T17:34:10.812Z,35.30
2019-02-19T17:37:12.531Z,36.67
2019-02-19T17:40:00.363Z,35.53
2019-02-19T17:42:51.632Z,34.20
2019-02-19T17:45:40.000Z,37.60
2019-02-19T17:48:24.932Z,35.53
2019-02-19T17:51:13.053Z,43.50
2019-02-19T17:53:55.892Z,35.57
2019-02-19T17:56:36.201Z,34.60
2019-02-19T17:59:22.400Z,32.93
2019-02-19T18:02:11.763Z,36.50
2019-02-19T18:04:49.083Z,33.80
2019-02-19T18:07:44.265Z,34.87
2019-02-19T18:10:51.657Z,33.70
2019-02-19T18:13:41.411Z,36.17
2019-02-19T18:16:33.617Z,35.37
2019-02-19T18:19:04.251Z,35.77
2019-02-19T18:21:34.682Z,34.93
2019-02-19T18:24:05.280Z,35.57
2019-02-19T18:26:35.739Z,36.37
2019-02-19T18:29:06.273Z,35.93
2019-02-19T18:31:37.348Z,35.53
2019-02-19T18:34:07.730Z,35.07
2019-02-19T18:36:38.250Z,35.10
2019-02-19T18:39:09.394Z,39.10
2019-02-19T18:41:39.821Z,38.37
2019-02-19T18:44:10.295Z,37.40
2019-02-19T18:46:40.628Z,37.70
2019-02-19T18:49:11.498Z,38.23
2019-02-19T18:51:42.098Z,41.60
2019-02-19T18:54:12.556Z,40.57
2019-02-19T18:56:42.958Z,40.27
2019-02-19T18:59:13.606Z,39.40
2019-02-19T19:01:44.281Z,39.63
2019-02-19T19:04:14.724Z,41.00
2019-02-19T19:06:45.512Z,40.10
2019-02-19T19:09:16.072Z,44.63
2019-02-19T19:11:46.814Z,41.77
2019-02-19T19:14:17.621Z,53.20
2019-02-19T19:16:48.281Z,50.90
2019-02-19T19:19:18.652Z,48.07
2019-02-19T19:21:52.108Z,45.57
2019-02-19T19:24:22.451Z,39.17
2019-02-19T19:26:52.842Z,39.33
2019-02-19T19:29:23.241Z,33.73
2019-02-19T19:31:53.703Z,29.27
2019-02-19T19:34:24.118Z,26.27
2019-02-19T19:36:54.819Z,30.33
2019-02-19T19:39:25.392Z,27.73
2019-02-19T19:41:55.751Z,28.30
2019-02-19T19:44:26.218Z,26.67
2019-02-19T19:46:56.774Z,30.37
2019-02-19T19:49:27.219Z,34.47
2019-02-19T19:51:57.752Z,34.47
2019-02-19T19:54:28.221Z,42.40
2019-02-19T19:56:58.790Z,43.30
2019-02-19T19:59:30.734Z,44.70
2019-02-19T20:02:01.185Z,46.77
2019-02-19T20:04:32.086Z,48.37
2019-02-19T20:07:02.626Z,44.73
2019-02-19T20:09:33.561Z,42.93
2019-02-19T20:12:04.765Z,47.00
2019-02-19T20:14:35.116Z,46.83
2019-02-19T20:17:05.620Z,42.17
2019-02-19T20:19:36.073Z,42.20
2019-02-19T20:22:06.673Z,45.77
2019-02-19T20:24:37.144Z,40.83
2019-02-19T20:27:08.215Z,43.27
2019-02-19T20:29:38.710Z,40.90
2019-02-19T20:32:09.238Z,39.27
2019-02-19T20:34:41.323Z,36.93
2019-02-19T20:37:13.947Z,39.27
2019-02-19T20:39:44.913Z,38.97
2019-02-19T20:42:15.572Z,37.90
2019-02-19T20:44:46.442Z,37.60
2019-02-19T20:47:17.025Z,36.03
2019-02-19T20:49:47.694Z,34.83
2019-02-19T20:52:19.619Z,38.50
2019-02-19T20:54:50.049Z,35.23
2019-02-19T20:57:20.459Z,35.57
2019-02-19T20:59:51.210Z,37.43
2019-02-19T21:02:22.064Z,34.30
2019-02-19T21:04:52.481Z,34.33
2019-02-19T21:07:22.918Z,31.00
2019-02-19T21:09:54.889Z,33.80
2019-02-19T21:12:25.405Z,32.93
2019-02-19T21:14:55.824Z,31.83
2019-02-19T21:17:26.342Z,33.70
2019-02-19T21:19:56.974Z,32.20
2019-02-19T21:22:27.508Z,31.60
2019-02-19T21:24:58.615Z,29.50
2019-02-19T21:27:29.171Z,31.90
2019-02-19T21:29:59.975Z,30.00
2019-02-19T21:32:30.591Z,32.70
2019-02-19T21:35:01.497Z,28.97
2019-02-19T21:37:33.227Z,28.90
2019-02-19T21:40:04.531Z,29.67
2019-02-19T21:42:36.585Z,27.43
2019-02-19T21:45:07.999Z,29.13
2019-02-19T21:47:39.861Z,26.10
2019-02-19T21:50:11.183Z,27.43
2019-02-19T21:52:41.885Z,27.50
2019-02-19T21:55:12.824Z,28.73
2019-02-19T21:57:43.314Z,30.83
2019-02-19T22:00:15.486Z,28.20
2019-02-19T22:02:47.777Z,28.00
2019-02-19T22:05:18.176Z,29.63
2019-02-19T22:07:48.700Z,30.57
2019-02-19T22:10:19.179Z,29.50
2019-02-19T22:12:49.719Z,31.20
2019-02-19T22:15:20.479Z,30.10
2019-02-19T22:17:51.037Z,29.60
2019-02-19T22:20:37.821Z,29.90
2019-02-19T22:23:08.645Z,29.97
2019-02-19T22:25:39.011Z,32.03
2019-02-19T22:28:09.464Z,31.93
2019-02-19T22:30:40.001Z,31.13
2019-02-19T22:33:10.458Z,33.27
2019-02-19T22:35:40.797Z,31.77
2019-02-19T22:38:11.235Z,31.33
2019-02-19T22:40:41.600Z,32.00
2019-02-19T22:43:12.277Z,31.77
2019-02-19T22:45:42.625Z,32.33
2019-02-19T22:48:13.057Z,32.47
2019-02-19T22:50:43.823Z,34.13
2019-02-19T22:53:42.347Z,32.40
2019-02-19T22:56:20.016Z,34.10
2019-02-19T22:58:50.536Z,34.40
2019-02-19T23:01:41.150Z,34.53
2019-02-19T23:04:11.775Z,34.63
2019-02-19T23:06:42.203Z,35.47
2019-02-19T23:09:12.605Z,37.93
2019-02-19T23:11:42.953Z,37.70
2019-02-19T23:14:13.965Z,37.47
2019-02-19T23:16:44.472Z,37.83
2019-02-19T23:19:17.113Z,39.13
2019-02-19T23:21:49.651Z,38.87
2019-02-19T23:24:20.459Z,38.73
2019-02-19T23:26:51.250Z,37.93
2019-02-19T23:29:21.759Z,35.57
2019-02-19T23:31:52.265Z,37.30
2019-02-19T23:34:22.711Z,37.80
2019-02-19T23:36:56.479Z,37.43
2019-02-19T23:39:26.925Z,36.30
2019-02-19T23:41:57.323Z,38.43
2019-02-19T23:44:27.765Z,35.77
2019-02-19T23:46:58.299Z,32.00
2019-02-19T23:49:28.745Z,34.57
2019-02-19T23:51:59.092Z,37.47
2019-02-19T23:54:29.619Z,32.97
2019-02-19T23:56:59.993Z,34.80
2019-02-19T23:59:30.510Z,32.70
